Marlboro, VT (05344)

3:19 AM EDT on October 24, 2014 (GMT -0400)
Wastewater Treatment Plant | Change Station
CLOSE
Current Station
Personal Weather Station
Location: Wilmington, VT
Elevation: 457 m
Nearby Weather Stations

Elev 457 m 42.87 °N, 72.88 °W | Updated 4 minutes ago

Overcast
Overcast
6.2 °C
Feels Like 6 °C
N
3.2
Wind Variable Wind from West
Gusts 3.2 km/h

Today
High -- | Low -- °C
--% Chance of Precip.
Yesterday
High -- | Low -- °C
Precip. -- mm
7:15 AM 5:54 PM
New Moon, 0% visible
Pressure 1007 hPa
Visibility 16.1 kilometers
Clouds Overcast 396 m
Windchill 6 °C
Dew Point 6 °C
Humidity 96%
Rainfall 1 mm
Snow Depth Not available.
UV 0 out of 12
Pollen .10 out of 12
Air Quality Not available.
Flu Activity Sporadic
METAR KEEN 240715Z AUTO 01006KT 10SM OVC013 09/04 A2973 RMK AO1

More Conditions Fewer Conditions

Pressure 1007 hPa
Visibility 16.1 kilometers
Clouds Overcast 396 m
Windchill 6 °C
Dew Point 6 °C
Humidity 96%
Rainfall 1 mm
Snow Depth Not available.
UV 0 out of 12
Pollen .10 out of 12
Air Quality Not available.
Flu Activity Sporadic
METAR KEEN 240715Z AUTO 01006KT 10SM OVC013 09/04 A2973 RMK AO1

More Conditions Fewer Conditions

10-Day Weather Forecast

Almanac

Astronomy

Oct. 24, 2014 Rise Set
Actual Time 7:15 AM EDT 5:54 PM EDT
Civil Twilight 6:46 AM EDT 6:23 PM EDT
Nautical Twilight 6:13 AM EDT 6:56 PM EDT
Astronomical Twilight 5:40 AM EDT 7:29 PM EDT
Moon 7:52 AM EDT 6:31 PM EDT
Length of Visible Light 11h 37m
Length of Day
10h 39m
Tomorrow will be 2m 42s shorter.
New Moon, 0% of the Moon is Illuminated
Today
New Moon
Oct 30
First Quarter
Nov 6
Full
Nov 14
Last Quarter
Nov 22
New

Today's Extremes

State Highs State Lows

Community

WunderPhotos

Upload Photos

1,764,510 photos uploaded!

WunderBlogs® & News

Nearby

Air Quality

  Air Quality AQ Index Pollutant
Yesterday Good
OZONE
Friday Good
PM2.5

Snow Depth

Station Depth Elevation
No new snow has been reported.

Earthquake Activity

City Distance Mag. Time & Date
No recent earthquake activity has been reported nearby.
Minimum magnitude displayed is 2.5.

Coastal Water Temperatures

Place Temperature
No Stations Reporting

Nearby Weather Stations